Kezdőlap
METAR-TAF:

METAR-TAF

Repülőterek :

Tekamah Municipal Airport

Tekamah, Nebraska, Amerikai Egyesült Államok

földrajzi szélesség: 41-46-01N, földrajzi hosszúság: 096-10-40W, magasság: 313 m

Jelenlegi meteorológiai megfigyelések

A jelentés 21 perccel ezelõtt készült, 07:54 UTC
Nyugat-délnyugati szél 6 kt
Hőmérséklet -3°C
Páratartalom 80%
Légköri nyomás 1020 hPa
Látótávolság: 16.1 km
Derült ég

METAR: KTQE 270754Z AUTO 24006KT 10SM CLR M03/M06 A3012 RMK AO2 SLP205 T10331061

Idő: 02:15 (08:15 UTC)


TAF: hiányzik

Meteorológiai megfigyelések és előrejelzések több, mint 4000 repülőtéren (METAR és TAF jelentéseket).

A térképen piros és sárga pontok jelzik az elérhető meteorológiai állomásokat.

Mozgassa az egeret a pont fölött, hogy megjelenjen az állomás neve.

Azután kattintson az időjárási megfigyelések és előrejelzések megtekintéséhez.

A térkép megváltoztatása: kattintson a fekete keresztel jelölt zöld gombra ráközelítéshez, a vonallal jelölt zöld gombra távolításhoz, vagy a zöld nyilakra a szomszédos térképek eléréséhez.


METAR-TAF: